createdAt,value
2022-10-17T00:03:53.397Z,4.43
2022-10-17T00:08:33.765Z,4.28
2022-10-17T00:13:16.991Z,4.25
2022-10-17T00:17:58.863Z,4.05
2022-10-17T00:22:39.268Z,4.32
2022-10-17T00:27:19.821Z,4.22
2022-10-17T00:31:59.926Z,3.95
2022-10-17T00:36:41.955Z,4.00
2022-10-17T00:41:24.696Z,4.15
2022-10-17T00:46:04.905Z,4.47
2022-10-17T00:50:49.954Z,3.78
2022-10-17T00:55:34.736Z,4.35
2022-10-17T01:00:16.824Z,4.55
2022-10-17T01:04:59.478Z,3.90
2022-10-17T01:09:40.559Z,4.75
2022-10-17T01:14:30.836Z,4.60
2022-10-17T01:19:36.891Z,4.40
2022-10-17T01:24:42.834Z,4.07
2022-10-17T01:29:48.329Z,4.60
2022-10-17T01:34:36.028Z,4.75
2022-10-17T01:39:26.948Z,4.70
2022-10-17T01:44:14.515Z,4.68
2022-10-17T01:48:56.829Z,4.47
2022-10-17T01:53:43.211Z,4.95
2022-10-17T01:58:30.023Z,4.55
2022-10-17T02:03:13.932Z,4.68
2022-10-17T02:07:54.124Z,4.80
2022-10-17T02:13:02.678Z,4.55
2022-10-17T02:17:48.026Z,4.72
2022-10-17T02:22:39.350Z,4.13
2022-10-17T02:27:27.335Z,4.80
2022-10-17T02:32:13.381Z,4.70
2022-10-17T02:36:59.282Z,4.47
2022-10-17T02:41:41.379Z,4.50
2022-10-17T02:46:24.609Z,4.85
2022-10-17T02:51:13.874Z,5.00
2022-10-17T02:55:58.989Z,4.57
2022-10-17T03:00:41.370Z,5.03
2022-10-17T03:05:24.407Z,4.55
2022-10-17T03:10:07.483Z,5.25
2022-10-17T03:14:47.749Z,4.75
2022-10-17T03:19:28.327Z,4.63
2022-10-17T03:24:08.981Z,5.22
2022-10-17T03:28:53.617Z,4.50
2022-10-17T03:33:34.738Z,4.38
2022-10-17T03:38:14.763Z,4.05
2022-10-17T03:42:54.882Z,4.30
2022-10-17T03:47:36.601Z,3.92
2022-10-17T03:52:16.928Z,4.78
2022-10-17T04:01:37.911Z,4.55
2022-10-17T04:06:19.851Z,11.60
2022-10-17T04:11:00.461Z,5.05
2022-10-17T04:15:41.220Z,4.40
2022-10-17T04:20:21.255Z,5.18
2022-10-17T04:25:02.494Z,5.15
2022-10-17T04:29:44.089Z,5.00
2022-10-17T04:34:24.727Z,4.20
2022-10-17T04:39:05.983Z,4.82
2022-10-17T04:43:51.039Z,5.32
2022-10-17T04:48:32.673Z,5.13
2022-10-17T04:53:12.868Z,5.55
2022-10-17T04:57:53.748Z,5.22
2022-10-17T05:02:35.403Z,5.57
2022-10-17T05:07:15.730Z,4.93
2022-10-17T05:11:56.333Z,5.10
2022-10-17T05:16:36.884Z,6.53
2022-10-17T05:21:19.176Z,5.63
2022-10-17T05:25:59.789Z,5.65
2022-10-17T05:30:40.130Z,5.10
2022-10-17T05:35:20.754Z,4.90
2022-10-17T05:40:02.201Z,5.75
2022-10-17T05:44:42.253Z,5.05
2022-10-17T05:49:32.649Z,5.45
2022-10-17T05:54:20.827Z,14.32
2022-10-17T05:59:03.012Z,4.95
2022-10-17T06:03:43.431Z,4.53
2022-10-17T06:08:24.035Z,5.93
2022-10-17T06:13:04.252Z,6.38
2022-10-17T06:17:46.103Z,6.82
2022-10-17T06:22:26.839Z,6.68
2022-10-17T06:27:11.035Z,6.65
2022-10-17T06:31:53.195Z,6.72
2022-10-17T06:36:34.714Z,6.38
2022-10-17T06:41:16.317Z,5.65
2022-10-17T06:50:38.021Z,8.32
2022-10-17T06:55:22.764Z,6.00
2022-10-17T07:00:04.059Z,5.93
2022-10-17T07:04:46.779Z,5.78
2022-10-17T07:09:27.862Z,5.43
2022-10-17T07:14:09.321Z,4.32
2022-10-17T07:18:50.847Z,4.07
2022-10-17T07:23:31.823Z,3.08
2022-10-17T07:28:12.082Z,3.75
2022-10-17T07:32:55.665Z,4.03
2022-10-17T07:37:35.571Z,5.25
2022-10-17T07:42:15.743Z,3.42
2022-10-17T07:46:55.859Z,3.22
2022-10-17T07:51:37.470Z,3.67
2022-10-17T07:56:18.085Z,2.78
2022-10-17T08:05:47.354Z,2.95
2022-10-17T08:10:29.813Z,2.97
2022-10-17T08:15:11.638Z,2.50
2022-10-17T08:19:52.382Z,3.35
2022-10-17T08:24:32.560Z,7.70
2022-10-17T08:29:15.839Z,2.53
2022-10-17T08:33:56.221Z,2.65
2022-10-17T08:38:41.430Z,2.92
2022-10-17T08:43:37.022Z,2.70
2022-10-17T08:48:22.525Z,3.55
2022-10-17T08:53:07.317Z,2.75
2022-10-17T08:57:49.577Z,2.60
2022-10-17T09:02:40.438Z,2.40
2022-10-17T09:07:30.037Z,2.63
2022-10-17T09:12:18.933Z,2.67
2022-10-17T09:17:12.257Z,3.00
2022-10-17T09:21:57.539Z,2.80
2022-10-17T09:26:41.494Z,2.78
2022-10-17T09:31:27.005Z,3.17
2022-10-17T09:36:13.101Z,3.22
2022-10-17T09:40:57.967Z,3.40
2022-10-17T09:45:47.177Z,3.20
2022-10-17T09:50:30.090Z,2.85
2022-10-17T09:55:19.552Z,2.83
2022-10-17T10:00:02.765Z,2.95
2022-10-17T10:05:10.047Z,3.20
2022-10-17T10:09:51.735Z,3.22
2022-10-17T10:14:34.467Z,3.38
2022-10-17T10:19:22.528Z,2.08
2022-10-17T10:24:13.896Z,2.30
2022-10-17T10:29:01.002Z,2.20
2022-10-17T10:33:46.983Z,1.92
2022-10-17T10:38:30.783Z,2.10
2022-10-17T10:43:24.303Z,2.00
2022-10-17T10:48:14.202Z,2.08
2022-10-17T10:53:08.852Z,2.08
2022-10-17T10:57:50.826Z,2.22
2022-10-17T11:02:39.353Z,2.10
2022-10-17T11:07:25.187Z,2.13
2022-10-17T11:12:11.453Z,1.77
2022-10-17T11:17:00.564Z,2.28
2022-10-17T11:21:48.123Z,1.98
2022-10-17T11:26:31.725Z,2.08
2022-10-17T11:31:15.602Z,1.90
2022-10-17T11:36:01.179Z,2.15
2022-10-17T11:40:46.887Z,2.42
2022-10-17T11:45:30.551Z,2.58
2022-10-17T11:55:25.786Z,2.47
2022-10-17T12:00:32.661Z,2.30
2022-10-17T12:05:23.842Z,2.42
2022-10-17T12:10:17.757Z,2.00
2022-10-17T12:15:29.837Z,2.40
2022-10-17T12:20:28.419Z,2.00
2022-10-17T12:25:20.349Z,2.05
2022-10-17T12:30:01.958Z,1.60
2022-10-17T12:34:53.165Z,1.67
2022-10-17T12:39:51.778Z,1.63
2022-10-17T12:44:39.207Z,1.60
2022-10-17T12:49:54.449Z,1.85
2022-10-17T12:54:53.570Z,1.50
2022-10-17T12:59:44.550Z,1.80
2022-10-17T13:04:25.866Z,1.90
2022-10-17T13:09:17.154Z,1.77
2022-10-17T13:14:00.272Z,1.73
2022-10-17T13:18:40.959Z,1.67
2022-10-17T13:23:24.025Z,1.95
2022-10-17T13:28:13.112Z,1.98
2022-10-17T13:32:53.229Z,1.85
2022-10-17T13:37:33.375Z,1.70
2022-10-17T13:42:22.693Z,1.67
2022-10-17T13:47:04.422Z,1.58
2022-10-17T13:51:46.648Z,1.75
2022-10-17T13:56:30.507Z,1.90
2022-10-17T14:01:16.573Z,1.88
2022-10-17T14:06:13.467Z,1.85
2022-10-17T14:10:53.812Z,1.60
2022-10-17T14:15:36.799Z,1.80
2022-10-17T14:25:32.475Z,1.90
2022-10-17T14:35:42.083Z,1.92
2022-10-17T14:40:25.276Z,1.95
2022-10-17T14:45:10.034Z,2.03
2022-10-17T14:49:51.841Z,2.28
2022-10-17T14:54:36.228Z,2.35
2022-10-17T14:59:30.094Z,1.98
2022-10-17T15:04:19.869Z,2.70
2022-10-17T15:09:00.239Z,3.20
2022-10-17T15:13:45.438Z,3.38
2022-10-17T15:18:25.945Z,3.10
2022-10-17T15:23:07.635Z,3.45
2022-10-17T15:27:47.847Z,2.90
2022-10-17T15:32:28.466Z,3.20
2022-10-17T15:37:17.603Z,3.55
2022-10-17T15:41:59.182Z,3.17
2022-10-17T15:46:42.183Z,2.85
2022-10-17T15:51:23.575Z,3.00
2022-10-17T15:56:06.076Z,3.83
2022-10-17T16:00:48.982Z,3.80
2022-10-17T16:05:29.338Z,3.03
2022-10-17T16:10:10.964Z,3.47
2022-10-17T16:14:50.987Z,3.45
2022-10-17T16:19:32.404Z,4.20
2022-10-17T16:24:13.816Z,3.78
2022-10-17T16:28:55.027Z,4.05
2022-10-17T16:33:35.680Z,9.57
2022-10-17T16:38:17.314Z,3.75
2022-10-17T16:42:57.276Z,4.18
2022-10-17T16:47:37.237Z,3.60
2022-10-17T16:52:17.681Z,3.80
2022-10-17T16:56:59.068Z,4.18
2022-10-17T17:01:39.613Z,3.75
2022-10-17T17:06:22.594Z,3.58
2022-10-17T17:11:03.107Z,3.83
2022-10-17T17:20:25.707Z,3.13
2022-10-17T17:25:07.229Z,2.75
2022-10-17T17:29:48.094Z,1.90
2022-10-17T17:34:29.869Z,2.40
2022-10-17T17:39:13.857Z,2.42
2022-10-17T17:43:54.855Z,2.40
2022-10-17T17:48:37.618Z,3.47
2022-10-17T17:53:19.514Z,2.30
2022-10-17T17:58:00.173Z,2.63
2022-10-17T18:02:42.273Z,2.97
2022-10-17T18:07:25.135Z,2.80
2022-10-17T18:12:07.145Z,3.47
2022-10-17T18:16:47.465Z,3.05
2022-10-17T18:21:28.201Z,3.50
2022-10-17T18:26:08.615Z,3.03
2022-10-17T18:30:50.715Z,2.33
2022-10-17T18:35:31.135Z,6.28
2022-10-17T18:40:12.261Z,3.08
2022-10-17T18:44:52.955Z,3.13
2022-10-17T18:49:35.728Z,3.25
2022-10-17T18:54:20.615Z,3.38
2022-10-17T18:59:00.610Z,2.97
2022-10-17T19:03:40.750Z,2.17
2022-10-17T19:08:22.371Z,3.08
2022-10-17T19:13:02.549Z,2.30
2022-10-17T19:17:43.386Z,2.08
2022-10-17T19:22:23.786Z,1.75
2022-10-17T19:27:06.953Z,1.60
2022-10-17T19:31:48.550Z,1.30
2022-10-17T19:36:33.654Z,1.20
2022-10-17T19:41:16.062Z,1.42
2022-10-17T19:45:58.903Z,1.17
2022-10-17T19:50:41.345Z,1.10
2022-10-17T19:55:21.694Z,1.52
2022-10-17T20:00:01.644Z,1.20
2022-10-17T20:04:54.345Z,1.08
2022-10-17T20:09:43.593Z,1.50
2022-10-17T20:14:23.905Z,1.70
2022-10-17T20:19:06.428Z,1.20
2022-10-17T20:23:48.554Z,1.30
2022-10-17T20:28:29.737Z,1.25
2022-10-17T20:33:09.860Z,1.80
2022-10-17T20:37:50.637Z,1.55
2022-10-17T20:42:32.518Z,4.35
2022-10-17T20:47:26.487Z,1.90
2022-10-17T20:52:13.611Z,2.10
2022-10-17T20:56:55.388Z,2.10
2022-10-17T21:01:36.141Z,2.67
2022-10-17T21:06:18.070Z,3.47
2022-10-17T21:11:08.240Z,2.05
2022-10-17T21:15:48.187Z,2.30
2022-10-17T21:20:29.595Z,11.98
2022-10-17T21:25:10.451Z,2.03
2022-10-17T21:29:50.575Z,1.85
2022-10-17T21:34:31.551Z,1.80
2022-10-17T21:39:14.384Z,1.70
2022-10-17T21:43:55.726Z,1.90
2022-10-17T21:48:36.363Z,2.00
2022-10-17T21:53:16.791Z,1.85
2022-10-17T21:57:58.271Z,2.35
2022-10-17T22:02:38.620Z,2.13
2022-10-17T22:07:18.963Z,2.10
2022-10-17T22:11:59.268Z,2.45
2022-10-17T22:16:41.195Z,2.65
2022-10-17T22:21:23.319Z,2.40
2022-10-17T22:26:03.946Z,2.75
2022-10-17T22:30:44.422Z,2.75
2022-10-17T22:35:26.096Z,2.92
2022-10-17T22:40:07.239Z,2.85
2022-10-17T22:44:47.878Z,3.00
2022-10-17T22:49:28.014Z,3.55
2022-10-17T22:54:09.477Z,3.20
2022-10-17T22:58:50.301Z,3.50
2022-10-17T23:03:31.876Z,3.63
2022-10-17T23:08:13.089Z,2.97
2022-10-17T23:12:54.499Z,3.70
2022-10-17T23:17:34.983Z,3.50
2022-10-17T23:22:15.214Z,3.50
2022-10-17T23:26:55.414Z,4.22
2022-10-17T23:31:37.446Z,4.20
2022-10-17T23:36:19.599Z,4.18
2022-10-17T23:41:00.153Z,4.10
2022-10-17T23:50:27.231Z,4.00
2022-10-17T23:55:08.858Z,4.05
2022-10-17T23:59:48.938Z,3.88
